Time;durP1;ratioP1;P1;durP2;ratioP2;P2;SDS_P1;SDS_P2;PMS_P1;PMS_P2;Temp;Humidity;BMP_temperature;BMP_pressure;BME280_temperature;BME280_humidity;BME280_pressure;Samples;Min_cycle;Max_cycle;Signal;HPM_P1;HPM_P2
2023/09/21 00:04:42;;;;;;;5.10;2.90;;;;;;;17.62;97.56;100180.13;4997130;57;1138814;-72
2023/09/21 00:09:47;;;;;;;7.03;3.10;;;;;;;17.65;97.62;100178.48;5012334;57;1138520;-72
2023/09/21 00:14:53;;;;;;;4.53;3.10;;;;;;;17.64;97.45;100160.26;4992103;57;1138812;-72
2023/09/21 00:19:59;;;;;;;6.57;3.50;;;;;;;17.63;97.65;100168.42;5044825;56;1138679;-72
2023/09/21 00:25:09;;;;;;;5.80;3.37;;;;;;;17.61;97.66;100164.58;5082448;56;1138732;-73
2023/09/21 00:30:14;;;;;;;7.63;3.30;;;;;;;17.58;97.46;100166.25;5098984;56;1138680;-73
2023/09/21 00:35:23;;;;;;;6.53;3.17;;;;;;;17.54;97.62;100158.27;5079382;56;1138679;-72
2023/09/21 00:40:28;;;;;;;6.47;3.57;;;;;;;17.41;97.20;100153.97;5079146;56;1138884;-72
2023/09/21 00:45:39;;;;;;;14.23;3.83;;;;;;;17.29;97.50;100160.16;5056650;57;1138892;-72
2023/09/21 00:50:46;;;;;;;14.40;3.43;;;;;;;17.21;97.72;100154.34;5078004;56;1140902;-72
2023/09/21 00:55:59;;;;;;;4.17;3.77;;;;;;;17.22;97.99;100159.19;5010664;57;1140578;-73
2023/09/21 01:01:05;;;;;;;12.45;3.87;;;;;;;17.20;98.23;100151.34;5080378;56;1138760;-72
2023/09/21 01:06:18;;;;;;;9.80;4.47;;;;;;;17.18;98.59;100144.49;5032622;56;1140796;-72
2023/09/21 01:11:20;;;;;;;7.00;4.55;;;;;;;17.16;98.73;100134.47;5012329;56;1138922;-73
2023/09/21 01:16:26;;;;;;;9.53;4.17;;;;;;;17.05;98.73;100130.83;5028408;56;1138913;-72
2023/09/21 01:21:37;;;;;;;6.33;4.10;;;;;;;16.96;99.05;100118.51;5089669;56;1138870;-72
2023/09/21 01:26:43;;;;;;;12.73;4.40;;;;;;;16.84;99.24;100118.83;5047291;56;1138876;-72
2023/09/21 01:31:49;;;;;;;8.97;4.90;;;;;;;16.78;99.62;100114.19;5085841;56;1140985;-73
2023/09/21 01:36:55;;;;;;;10.67;4.50;;;;;;;16.75;100.00;100105.17;5026198;56;1138942;-73
2023/09/21 01:42:01;;;;;;;13.13;5.37;;;;;;;16.72;100.00;100095.31;4937997;58;1142959;-73
2023/09/21 01:47:08;;;;;;;9.40;5.84;;;;;;;16.69;100.00;100096.98;4950241;57;1146057;-72
2023/09/21 01:52:14;;;;;;;8.80;4.93;;;;;;;16.67;100.00;100089.64;5043497;56;1140933;-72
2023/09/21 01:57:20;;;;;;;9.50;4.50;;;;;;;16.58;100.00;100088.80;5055845;56;1140913;-73
2023/09/21 02:02:26;;;;;;;13.93;5.17;;;;;;;16.57;100.00;100086.29;5014581;56;1141133;-72
2023/09/21 02:07:33;;;;;;;12.43;5.40;;;;;;;16.52;100.00;100092.13;5021723;57;1143858;-73
2023/09/21 02:12:40;;;;;;;5.57;4.40;;;;;;;16.48;100.00;100088.98;4999497;56;1143042;-72
2023/09/21 02:17:45;;;;;;;6.90;4.70;;;;;;;16.46;100.00;100089.64;4998147;56;1140937;-72
2023/09/21 02:23:01;;;;;;;9.53;4.90;;;;;;;16.45;100.00;100088.47;5003002;57;1140805;-73
2023/09/21 02:28:09;;;;;;;6.60;4.97;;;;;;;16.44;100.00;100086.80;5008298;57;1140971;-73
2023/09/21 02:33:10;;;;;;;7.63;4.90;;;;;;;16.50;100.00;100072.27;4961684;57;1254130;-72
2023/09/21 02:38:18;;;;;;;21.03;5.37;;;;;;;16.46;100.00;100079.47;5000885;56;1140960;-72
2023/09/21 02:43:24;;;;;;;15.30;5.77;;;;;;;16.40;100.00;100080.13;5059248;56;1143028;-72
2023/09/21 02:48:30;;;;;;;7.57;4.93;;;;;;;16.32;100.00;100072.13;4977450;57;1143254;-72
2023/09/21 02:53:36;;;;;;;12.55;5.40;;;;;;;16.23;100.00;100082.45;5003441;56;1140965;-72
2023/09/21 02:58:42;;;;;;;9.30;5.00;;;;;;;16.20;100.00;100071.59;5089697;56;1143167;-72
2023/09/21 03:03:48;;;;;;;8.10;5.60;;;;;;;16.19;100.00;100067.30;5085035;56;1140947;-72
2023/09/21 03:08:55;;;;;;;11.37;5.77;;;;;;;16.14;100.00;100062.45;5086039;55;1141051;-72
2023/09/21 03:14:04;;;;;;;7.40;4.87;;;;;;;16.08;100.00;100062.26;5102872;56;1143015;-73
2023/09/21 03:19:09;;;;;;;9.80;4.83;;;;;;;16.06;100.00;100051.75;5079309;56;1141059;-72
2023/09/21 03:24:15;;;;;;;22.62;5.75;;;;;;;16.07;100.00;100052.59;5076306;55;1140842;-72
2023/09/21 03:29:21;;;;;;;11.57;5.60;;;;;;;16.03;100.00;100040.60;5078488;56;1143372;-72
2023/09/21 03:34:27;;;;;;;10.20;5.70;;;;;;;16.01;100.00;100054.10;5066552;56;1142878;-73
2023/09/21 03:39:34;;;;;;;12.90;6.07;;;;;;;15.96;100.00;100047.08;4969120;57;1142893;-72
2023/09/21 03:44:42;;;;;;;12.33;6.47;;;;;;;15.93;100.00;100035.91;5091629;56;1143355;-72
2023/09/21 03:49:47;;;;;;;12.27;5.83;;;;;;;15.89;100.00;100034.06;5015040;56;1143089;-72
2023/09/21 03:54:52;;;;;;;10.47;6.30;;;;;;;15.89;100.00;100029.26;4984991;57;1143197;-72
2023/09/21 03:59:58;;;;;;;10.83;6.10;;;;;;;15.88;100.00;100031.09;5024400;57;1143085;-72
2023/09/21 04:05:04;;;;;;;10.18;5.78;;;;;;;15.85;100.00;100030.58;4970907;57;1143182;-72
2023/09/21 04:10:11;;;;;;;8.50;6.13;;;;;;;15.87;100.00;100027.25;4980074;57;1142884;-72
2023/09/21 04:15:18;;;;;;;12.23;6.90;;;;;;;15.82;100.00;100023.23;5014429;57;1141053;-72
2023/09/21 04:20:25;;;;;;;9.53;6.17;;;;;;;15.79;100.00;100022.72;5016308;57;1143129;-74
2023/09/21 04:25:32;;;;;;;9.97;6.27;;;;;;;15.75;100.00;100024.88;4978388;57;1140817;-72
2023/09/21 04:30:39;;;;;;;10.97;6.30;;;;;;;15.70;100.00;100017.05;4997899;57;1141177;-73
2023/09/21 04:35:44;;;;;;;15.77;5.83;;;;;;;15.68;100.00;100017.22;5029684;56;1142932;-72
2023/09/21 04:40:51;;;;;;;9.43;7.10;;;;;;;15.58;100.00;100005.05;5018580;57;1142899;-72
2023/09/21 04:45:56;;;;;;;9.28;6.62;;;;;;;15.61;100.00;100008.19;5022532;57;1140880;-73
2023/09/21 04:51:02;;;;;;;11.50;6.73;;;;;;;15.54;100.00;100008.49;4971691;56;1141021;-71
2023/09/21 04:56:08;;;;;;;14.98;7.30;;;;;;;15.51;100.00;99998.66;4959030;57;1143168;-71
2023/09/21 05:01:15;;;;;;;13.87;5.97;;;;;;;15.44;100.00;100000.63;5088473;56;1141004;-72
2023/09/21 05:06:21;;;;;;;20.97;7.07;;;;;;;15.46;100.00;100000.46;5025728;56;1142891;-73
2023/09/21 05:11:27;;;;;;;12.13;6.47;;;;;;;15.51;100.00;99995.48;5075989;56;1249870;-72
2023/09/21 05:16:33;;;;;;;13.13;6.53;;;;;;;15.53;100.00;99997.50;4983689;56;1141387;-73
2023/09/21 05:21:39;;;;;;;11.77;6.13;;;;;;;15.48;100.00;99989.98;4934954;56;1141122;-72
2023/09/21 05:26:45;;;;;;;9.57;5.73;;;;;;;15.48;100.00;99983.81;4965784;57;1140887;-72
2023/09/21 05:31:51;;;;;;;9.27;6.30;;;;;;;15.52;100.00;99988.33;5039841;56;1139286;-73
2023/09/21 05:36:57;;;;;;;9.07;6.03;;;;;;;15.57;100.00;99984.22;5040759;56;1138490;-73
2023/09/21 05:42:04;;;;;;;9.53;6.47;;;;;;;15.65;100.00;99980.22;5003480;56;1138746;-73
2023/09/21 05:47:10;;;;;;;11.47;6.30;;;;;;;15.79;100.00;99988.06;4988134;57;1138756;-73
2023/09/21 05:52:18;;;;;;;9.90;5.93;;;;;;;16.01;100.00;99985.25;5004235;57;1141108;-73
2023/09/21 05:57:23;;;;;;;14.43;6.47;;;;;;;16.30;100.00;99990.90;4952422;57;1138920;-65
2023/09/21 06:02:28;;;;;;;42.10;24.17;;;;;;;16.61;100.00;99978.16;4962366;56;1141019;-73
2023/09/21 06:07:35;;;;;;;11.57;6.53;;;;;;;16.84;100.00;99979.11;5062619;56;1144036;-73
2023/09/21 06:12:40;;;;;;;13.90;5.87;;;;;;;17.11;100.00;99974.65;5030736;56;1140891;-73
2023/09/21 06:17:46;;;;;;;9.73;5.60;;;;;;;17.40;100.00;99979.38;5017682;57;1141069;-73
2023/09/21 06:22:52;;;;;;;9.87;5.50;;;;;;;17.65;100.00;99985.92;5069655;56;1138969;-74
2023/09/21 06:27:59;;;;;;;8.13;5.15;;;;;;;17.83;100.00;99983.28;5040619;57;1138825;-73
2023/09/21 06:33:06;;;;;;;7.70;5.63;;;;;;;17.91;100.00;99978.36;5087563;56;1138695;-73
2023/09/21 06:38:11;;;;;;;10.35;6.47;;;;;;;18.05;100.00;99973.56;5132238;56;1138878;-73
2023/09/21 06:43:17;;;;;;;8.23;5.23;;;;;;;18.22;100.00;99971.58;5098178;56;1140856;-74
2023/09/21 06:48:23;;;;;;;6.93;5.20;;;;;;;18.38;100.00;99967.91;5106833;56;1138678;-75
2023/09/21 06:53:29;;;;;;;11.60;5.90;;;;;;;18.57;100.00;99968.72;5078883;56;1138687;-73
2023/09/21 06:58:35;;;;;;;9.65;5.30;;;;;;;18.75;100.00;99962.53;5097705;56;1140722;-73
2023/09/21 07:03:41;;;;;;;6.72;4.55;;;;;;;19.02;100.00;99954.83;5078214;56;1138734;-73
2023/09/21 07:08:50;;;;;;;11.15;4.75;;;;;;;19.29;100.00;99942.88;5083859;56;1138679;-74
2023/09/21 07:13:56;;;;;;;9.00;5.67;;;;;;;19.49;100.00;99943.61;5101826;56;1140777;-73
2023/09/21 07:19:02;;;;;;;13.10;5.55;;;;;;;19.66;100.00;99949.92;4983870;57;1138915;-73
2023/09/21 07:24:08;;;;;;;8.83;4.50;;;;;;;19.83;100.00;99945.64;5041779;56;1140917;-73
2023/09/21 07:29:14;;;;;;;8.53;4.23;;;;;;;20.05;100.00;99943.23;5074251;56;1138800;-75
2023/09/21 07:34:20;;;;;;;8.95;4.85;;;;;;;20.27;100.00;99941.34;4955779;58;1138825;-73
2023/09/21 07:39:28;;;;;;;9.53;4.20;;;;;;;20.50;100.00;99938.42;4971411;56;1138566;-73
2023/09/21 07:44:33;;;;;;;6.25;4.40;;;;;;;20.57;100.00;99937.95;4997111;56;1138564;-67
2023/09/21 07:49:39;;;;;;;6.03;4.50;;;;;;;20.65;100.00;99931.89;4981967;57;1138793;-68
2023/09/21 07:54:45;;;;;;;7.65;4.58;;;;;;;20.90;100.00;99934.94;5020204;56;1138750;-66
2023/09/21 07:59:50;;;;;;;7.78;3.80;;;;;;;21.13;100.00;99925.19;4941992;57;1138612;-68
2023/09/21 08:04:57;;;;;;;6.70;4.17;;;;;;;21.33;100.00;99926.63;5018489;57;1138886;-67
2023/09/21 08:10:04;;;;;;;14.65;4.30;;;;;;;21.55;100.00;99916.52;4995870;56;1138717;-66
2023/09/21 08:15:17;;;;;;;10.05;4.35;;;;;;;21.81;100.00;99908.49;4943390;58;1140990;-68
2023/09/21 08:20:17;;;;;;;8.60;4.43;;;;;;;22.08;100.00;99906.12;5086258;56;1143707;-68
2023/09/21 08:25:23;;;;;;;16.50;3.77;;;;;;;22.33;100.00;99912.20;5058592;56;1138849;-69
2023/09/21 08:30:28;;;;;;;12.35;3.98;;;;;;;22.55;96.88;99906.88;4966457;57;1140798;-73
2023/09/21 08:35:34;;;;;;;8.95;3.83;;;;;;;22.75;99.77;99902.78;4942289;57;1138898;-73
2023/09/21 08:40:42;;;;;;;6.42;3.47;;;;;;;23.01;97.01;99906.74;4981638;57;1136840;-72
2023/09/21 08:45:52;;;;;;;9.33;3.10;;;;;;;23.19;94.73;99899.29;5078839;56;1136521;-72
2023/09/21 08:51:00;;;;;;;6.00;3.46;;;;;;;23.24;95.24;99896.75;5066738;56;1136955;-74
2023/09/21 08:56:08;;;;;;;6.33;3.30;;;;;;;23.38;95.30;99894.80;5022994;57;1136653;-73
2023/09/21 09:01:15;;;;;;;6.30;3.42;;;;;;;23.62;94.86;99897.28;5091884;56;1136533;-72
2023/09/21 09:06:21;;;;;;;6.58;3.20;;;;;;;23.80;94.60;99895.48;5150356;55;1136458;-72
2023/09/21 09:11:42;;;;;;;7.62;3.27;;;;;;;23.93;89.88;99881.03;5022404;57;1136767;-72
2023/09/21 09:16:49;;;;;;;6.65;2.90;;;;;;;24.08;93.09;99879.34;5025071;57;1136744;-73
2023/09/21 09:21:57;;;;;;;11.90;3.92;;;;;;;24.32;91.09;99874.44;5032294;56;1136833;-74
2023/09/21 09:27:03;;;;;;;4.90;3.37;;;;;;;24.39;88.85;99872.51;5038326;56;1138635;-73
2023/09/21 09:32:09;;;;;;;8.43;2.77;;;;;;;24.43;89.08;99865.61;4999226;56;1136683;-72
2023/09/21 09:37:17;;;;;;;4.55;3.12;;;;;;;24.65;88.26;99858.38;5074257;56;1136514;-72
2023/09/21 09:42:24;;;;;;;11.95;5.50;;;;;;;24.77;87.19;99849.27;4978234;56;1136901;-73
2023/09/21 09:47:33;;;;;;;5.42;2.87;;;;;;;24.92;88.45;99838.56;4946842;57;1138575;-73
2023/09/21 09:52:43;;;;;;;8.03;2.85;;;;;;;25.15;85.85;99840.89;5103247;56;1136839;-72
2023/09/21 09:57:48;;;;;;;6.97;2.98;;;;;;;25.36;85.64;99830.59;5015200;56;1136667;-72
2023/09/21 10:03:00;;;;;;;8.92;3.58;;;;;;;25.56;84.54;99829.73;5034861;57;1136692;-74
2023/09/21 10:08:07;;;;;;;6.30;3.25;;;;;;;25.77;85.12;99827.85;5030296;56;1137023;-73
2023/09/21 10:13:14;;;;;;;8.40;3.00;;;;;;;25.95;81.94;99818.79;5088092;56;1137114;-72
2023/09/21 10:18:35;;;;;;;6.10;3.00;;;;;;;26.08;81.93;99814.48;5080777;56;1136695;-72
2023/09/21 10:24:02;;;;;;;6.37;3.40;;;;;;;26.24;79.42;99809.69;5079080;56;1136549;-72
2023/09/21 10:29:12;;;;;;;9.25;3.05;;;;;;;26.31;76.47;99815.52;5080076;56;1137112;-73
2023/09/21 10:34:24;;;;;;;12.37;3.08;;;;;;;26.29;76.01;99815.76;5104757;56;1136857;-73
2023/09/21 10:39:29;;;;;;;;;;;;;;;26.41;78.81;99815.76;5090517;56;1138704;-72
2023/09/21 10:45:04;;;;;;;10.32;2.62;;;;;;;26.48;75.97;99801.52;5107013;56;974157;-72
2023/09/21 10:50:12;;;;;;;7.12;2.98;;;;;;;26.63;77.23;99801.30;5085053;55;1136519;-74
2023/09/21 10:55:20;;;;;;;9.65;4.20;;;;;;;26.74;74.85;99797.41;5113439;56;1136657;-75
2023/09/21 11:00:27;;;;;;;6.20;2.62;;;;;;;26.83;74.40;99790.02;5102436;55;1136851;-75
2023/09/21 11:05:34;;;;;;;8.20;2.87;;;;;;;27.05;73.40;99782.55;5102590;55;1136844;-68
2023/09/21 11:10:42;;;;;;;6.72;2.45;;;;;;;27.18;71.17;99781.73;5127848;56;1136557;-67
2023/09/21 11:15:48;;;;;;;12.50;3.75;;;;;;;27.26;70.26;99764.20;5095179;55;1136788;-68
2023/09/21 11:20:54;;;;;;;4.70;2.47;;;;;;;27.37;69.97;99767.89;5088041;55;1138746;-70
2023/09/21 11:26:05;;;;;;;11.85;3.15;;;;;;;27.52;67.23;99772.21;5125075;56;1136757;-67
2023/09/21 11:31:15;;;;;;;7.60;2.80;;;;;;;27.68;69.21;99765.15;5105061;56;1138719;-68
2023/09/21 11:36:21;;;;;;;10.53;2.53;;;;;;;27.69;68.65;99762.72;5099036;56;1136812;-66
2023/09/21 11:41:27;;;;;;;13.50;2.90;;;;;;;27.82;69.53;99752.32;5118277;56;1138857;-69
2023/09/21 11:46:34;;;;;;;9.85;2.87;;;;;;;27.98;67.33;99753.35;5096301;56;1138775;-67
2023/09/21 11:51:39;;;;;;;6.67;2.60;;;;;;;28.01;64.17;99756.40;5137384;55;1136580;-68
2023/09/21 11:56:47;;;;;;;17.55;2.95;;;;;;;28.10;66.30;99745.92;4995638;56;1136515;-69
2023/09/21 12:01:55;;;;;;;9.35;3.52;;;;;;;28.24;64.97;99731.45;4911128;57;1138909;-69
2023/09/21 12:07:00;;;;;;;11.90;2.90;;;;;;;28.39;63.01;99724.00;5002971;57;1136805;-73
2023/09/21 12:12:07;;;;;;;7.17;2.80;;;;;;;28.19;62.30;99721.86;5038969;56;1138689;-74
2023/09/21 12:17:19;;;;;;;6.25;2.05;;;;;;;28.19;63.01;99720.50;5041384;56;1136799;-73
2023/09/21 12:22:20;;;;;;;6.90;2.58;;;;;;;28.21;63.49;99713.73;5024383;56;1136520;-74
2023/09/21 12:27:25;;;;;;;6.45;2.70;;;;;;;28.38;61.73;99712.30;5008453;56;1136708;-75
2023/09/21 12:32:31;;;;;;;7.70;2.47;;;;;;;28.34;59.29;99703.82;4975717;57;1136656;-74
2023/09/21 12:37:39;;;;;;;11.75;3.00;;;;;;;28.69;59.70;99690.31;4931252;57;1136620;-74
2023/09/21 12:42:46;;;;;;;8.40;2.60;;;;;;;28.69;59.70;99690.31;5005423;57;1138671;-74
2023/09/21 12:47:52;;;;;;;5.00;2.20;;;;;;;28.68;57.35;99689.48;5015378;57;1136693;-74
2023/09/21 12:52:58;;;;;;;6.26;2.82;;;;;;;28.80;59.23;99690.71;4998607;56;1136689;-76
2023/09/21 12:58:06;;;;;;;4.70;2.40;;;;;;;29.00;58.45;99680.55;4993078;57;1136749;-74
2023/09/21 13:03:12;;;;;;;8.60;2.40;;;;;;;29.16;55.91;99673.32;5068189;56;1136732;-74
2023/09/21 13:08:18;;;;;;;7.17;2.70;;;;;;;29.09;55.90;99676.25;5063673;56;1136599;-74
2023/09/21 13:13:24;;;;;;;11.08;2.42;;;;;;;29.08;56.76;99672.42;5079384;56;1136577;-74
2023/09/21 13:18:29;;;;;;;10.95;2.58;;;;;;;29.14;55.13;99665.41;5078991;56;1138635;-74
2023/09/21 13:23:37;;;;;;;5.15;2.02;;;;;;;29.24;55.21;99662.75;5098739;57;1138861;-75
2023/09/21 13:28:42;;;;;;;5.35;2.50;;;;;;;29.34;54.37;99652.45;5079197;57;1136793;-74
2023/09/21 13:33:48;;;;;;;11.22;2.67;;;;;;;29.47;51.12;99654.77;5079495;56;1136493;-74
2023/09/21 13:38:53;;;;;;;10.72;2.65;;;;;;;29.36;50.83;99645.66;5049542;56;1138523;-74
2023/09/21 13:43:59;;;;;;;9.58;2.22;;;;;;;29.29;50.71;99642.91;4918090;58;1138681;-75
2023/09/21 13:49:06;;;;;;;3.37;2.57;;;;;;;29.27;50.65;99640.98;4954302;58;1136829;-74
2023/09/21 13:54:12;;;;;;;7.72;2.33;;;;;;;29.18;49.50;99632.46;4992477;57;1136577;-74
2023/09/21 13:59:22;;;;;;;6.97;2.52;;;;;;;29.15;51.51;99632.19;4963027;57;1136790;-73
2023/09/21 14:04:25;;;;;;;7.90;2.25;;;;;;;29.26;51.01;99632.53;5076018;56;1136697;-73
2023/09/21 14:09:31;;;;;;;7.28;2.87;;;;;;;29.37;51.23;99627.41;5086738;56;1136776;-73
2023/09/21 14:14:36;;;;;;;9.55;2.83;;;;;;;29.45;51.01;99623.41;5056636;56;1136769;-73
2023/09/21 14:19:42;;;;;;;7.05;2.85;;;;;;;29.60;51.04;99616.68;5159604;55;1137003;-74
2023/09/21 14:24:48;;;;;;;4.95;2.77;;;;;;;29.58;50.92;99606.04;5110973;55;1136765;-75
2023/09/21 14:29:54;;;;;;;9.88;3.72;;;;;;;29.46;50.23;99601.36;4999569;57;1136808;-73
2023/09/21 14:35:07;;;;;;;6.55;3.35;;;;;;;29.31;50.87;99597.98;5025229;56;1136765;-75
2023/09/21 14:40:09;;;;;;;22.80;11.07;;;;;;;29.22;52.17;99596.00;5015694;56;1136524;-72
2023/09/21 14:45:15;;;;;;;13.43;3.63;;;;;;;29.19;52.53;99595.16;5029146;55;1141069;-74
2023/09/21 14:50:21;;;;;;;5.28;3.33;;;;;;;29.10;52.17;99586.67;5020131;57;1138907;-73
2023/09/21 14:55:26;;;;;;;7.50;3.52;;;;;;;28.97;52.28;99584.41;5090426;56;1136621;-73
2023/09/21 15:00:32;;;;;;;6.00;2.90;;;;;;;28.84;51.94;99580.25;4999240;57;1136615;-73
2023/09/21 15:05:38;;;;;;;6.45;3.42;;;;;;;28.86;52.77;99574.00;4959923;57;1136573;-74
2023/09/21 15:10:44;;;;;;;10.55;3.55;;;;;;;28.89;53.55;99577.54;5026927;57;1136779;-73
2023/09/21 15:15:49;;;;;;;8.30;4.12;;;;;;;29.02;54.22;99564.86;4989908;57;1138766;-73
2023/09/21 15:20:55;;;;;;;7.08;3.60;;;;;;;28.88;52.53;99559.56;5104183;54;1137141;-73
2023/09/21 15:26:01;;;;;;;5.53;2.80;;;;;;;28.72;52.99;99561.08;5192534;55;1136907;-75
2023/09/21 15:31:08;;;;;;;13.10;3.52;;;;;;;28.60;54.00;99559.33;5106276;55;1136803;-73
2023/09/21 15:36:13;;;;;;;7.12;3.37;;;;;;;28.56;53.67;99556.88;5046466;56;1138761;-73
2023/09/21 15:41:19;;;;;;;6.70;3.05;;;;;;;28.50;53.76;99558.44;5047247;57;1136813;-74
2023/09/21 15:46:24;;;;;;;16.45;3.55;;;;;;;28.48;54.60;99551.90;5015659;57;1136801;-73
2023/09/21 15:51:30;;;;;;;19.52;3.95;;;;;;;28.52;54.81;99550.84;5074615;56;1138812;-73
2023/09/21 15:56:36;;;;;;;6.67;2.87;;;;;;;28.48;54.26;99551.08;4986273;57;1139155;-72
2023/09/21 16:01:42;;;;;;;16.70;2.98;;;;;;;28.45;54.29;99543.43;4940810;57;1136882;-75
2023/09/21 16:06:47;;;;;;;12.47;3.58;;;;;;;28.29;54.16;99538.40;4997335;57;1138984;-73
2023/09/21 16:11:53;;;;;;;4.78;3.10;;;;;;;28.12;54.45;99529.50;5016305;57;1138547;-73
2023/09/21 16:17:02;;;;;;;11.68;2.70;;;;;;;27.98;55.02;99531.28;4996768;56;1136549;-72
2023/09/21 16:22:05;;;;;;;7.47;3.08;;;;;;;27.90;55.33;99533.12;5071422;56;1138695;-73
2023/09/21 16:27:12;;;;;;;8.87;3.03;;;;;;;27.81;55.15;99539.25;5078990;56;1136665;-73
2023/09/21 16:32:18;;;;;;;8.83;2.95;;;;;;;27.66;55.65;99533.11;5128788;55;1136733;-74
2023/09/21 16:37:24;;;;;;;13.10;4.20;;;;;;;27.51;56.20;99530.17;5067783;56;1136798;-74
2023/09/21 16:42:30;;;;;;;10.82;3.90;;;;;;;27.41;56.94;99534.14;5079116;57;1138716;-73
2023/09/21 16:47:36;;;;;;;7.47;3.25;;;;;;;27.29;57.29;99534.27;5077947;56;1138888;-74
2023/09/21 16:52:41;;;;;;;19.27;4.10;;;;;;;27.14;57.80;99526.75;4962177;57;1136600;-74
2023/09/21 16:57:47;;;;;;;19.07;4.25;;;;;;;26.96;58.22;99520.25;4992605;56;1138868;-74
2023/09/21 17:02:52;;;;;;;21.20;3.65;;;;;;;26.79;58.86;99521.59;4973342;57;1138733;-74
2023/09/21 17:07:59;;;;;;;19.65;4.17;;;;;;;26.62;59.50;99520.26;4962615;57;1138652;-74
2023/09/21 17:13:05;;;;;;;7.37;3.45;;;;;;;26.46;60.10;99517.02;4975139;56;1138938;-75
2023/09/21 17:18:11;;;;;;;18.50;4.60;;;;;;;26.34;60.61;99514.11;4966648;57;1136965;-75
2023/09/21 17:23:17;;;;;;;12.82;5.35;;;;;;;26.21;60.96;99517.41;5012976;57;1138822;-74
2023/09/21 17:28:22;;;;;;;18.65;5.97;;;;;;;26.08;61.41;99516.89;5077836;56;1138714;-76
2023/09/21 17:33:28;;;;;;;12.73;4.35;;;;;;;25.98;61.91;99512.63;4967507;57;1138741;-74
2023/09/21 17:38:36;;;;;;;11.43;4.42;;;;;;;25.88;62.37;99515.98;5090554;56;1138572;-73
2023/09/21 17:43:41;;;;;;;20.20;3.70;;;;;;;25.74;62.77;99516.81;5071506;56;1138906;-75
2023/09/21 17:48:48;;;;;;;9.90;3.67;;;;;;;25.64;63.39;99516.63;5106109;56;1138642;-74
2023/09/21 17:53:54;;;;;;;11.05;4.10;;;;;;;25.51;63.84;99519.03;5184655;55;1136846;-73
2023/09/21 17:59:05;;;;;;;9.73;4.97;;;;;;;25.43;64.41;99515.36;5093139;56;1138629;-73
2023/09/21 18:04:07;;;;;;;10.68;3.33;;;;;;;25.34;64.75;99508.70;5061522;56;1136634;-75
2023/09/21 18:09:12;;;;;;;12.75;4.70;;;;;;;25.32;65.17;99511.34;4993692;57;1138647;-74
2023/09/21 18:14:18;;;;;;;20.32;4.30;;;;;;;25.24;65.45;99507.94;4986615;56;1138866;-74
2023/09/21 18:19:24;;;;;;;13.45;4.08;;;;;;;25.18;65.71;99497.26;5019506;56;1139039;-73
2023/09/21 18:24:29;;;;;;;19.15;4.15;;;;;;;25.12;65.96;99491.44;5005466;56;1138723;-75
2023/09/21 18:29:35;;;;;;;8.95;4.20;;;;;;;25.05;66.18;99490.23;5064383;57;1138909;-72
2023/09/21 18:34:40;;;;;;;10.72;4.70;;;;;;;25.01;66.29;99490.41;4966409;56;1136837;-75
2023/09/21 18:39:47;;;;;;;11.25;3.47;;;;;;;24.93;66.59;99492.60;4996210;57;1203660;-75
2023/09/21 18:44:53;;;;;;;14.65;3.50;;;;;;;24.87;67.12;99483.58;5053782;57;1138893;-76
2023/09/21 18:49:59;;;;;;;14.78;4.10;;;;;;;24.81;67.41;99484.52;4947641;57;1138640;-74
2023/09/21 18:55:07;;;;;;;6.28;3.78;;;;;;;24.74;67.54;99483.83;5036043;56;1138851;-75
2023/09/21 19:00:14;;;;;;;13.10;4.00;;;;;;;24.71;67.72;99484.30;4992129;56;1136617;-75
2023/09/21 19:05:21;;;;;;;11.25;4.12;;;;;;;24.67;67.78;99473.65;4972067;57;1138883;-73
2023/09/21 19:10:26;;;;;;;10.30;3.70;;;;;;;24.58;68.02;99473.72;5018541;56;1138902;-75
2023/09/21 19:15:32;;;;;;;12.58;4.40;;;;;;;24.51;68.13;99468.42;4994835;57;1183022;-75
2023/09/21 19:20:38;;;;;;;16.55;3.95;;;;;;;24.43;68.38;99464.73;5041902;56;1138660;-74
2023/09/21 19:25:43;;;;;;;6.22;3.75;;;;;;;24.37;68.60;99458.89;5057696;56;1138866;-74
2023/09/21 19:30:54;;;;;;;21.45;4.58;;;;;;;24.34;68.46;99453.95;4990354;57;1136758;-73
2023/09/21 19:35:59;;;;;;;8.53;4.20;;;;;;;24.33;68.73;99457.71;5015807;56;1138793;-75
2023/09/21 19:41:06;;;;;;;7.03;4.12;;;;;;;24.26;68.72;99457.84;4943225;57;1136594;-76
2023/09/21 19:46:11;;;;;;;11.40;4.42;;;;;;;24.18;68.85;99444.63;5011114;56;1136584;-73
2023/09/21 19:51:17;;;;;;;6.60;4.03;;;;;;;24.13;69.09;99454.80;5103183;55;1139400;-74
2023/09/21 19:56:24;;;;;;;10.15;4.35;;;;;;;24.00;69.14;99433.38;5129462;56;1137421;-74
2023/09/21 20:01:30;;;;;;;12.20;4.20;;;;;;;23.96;69.32;99432.22;5084529;56;1177918;-73
2023/09/21 20:06:36;;;;;;;10.53;4.00;;;;;;;23.87;69.59;99428.19;5052577;56;1244694;-74
2023/09/21 20:11:41;;;;;;;14.23;4.47;;;;;;;23.78;69.64;99423.67;5085840;56;1245207;-74
2023/09/21 20:16:47;;;;;;;16.32;4.95;;;;;;;23.75;69.66;99417.90;5044033;56;1138696;-74
2023/09/21 20:21:54;;;;;;;10.32;4.50;;;;;;;23.66;70.10;99407.97;5034730;56;1246730;-74
2023/09/21 20:26:59;;;;;;;13.03;4.65;;;;;;;23.57;70.71;99401.77;4954499;58;1139534;-73
2023/09/21 20:32:06;;;;;;;11.22;4.70;;;;;;;23.46;71.16;99383.11;4998850;57;1252143;-74
2023/09/21 20:37:12;;;;;;;6.98;4.60;;;;;;;23.32;71.18;99377.09;5026532;56;1252544;-73
2023/09/21 20:42:17;;;;;;;11.77;4.67;;;;;;;23.27;72.03;99376.11;5004250;56;1199638;-74
2023/09/21 20:47:23;;;;;;;20.17;4.80;;;;;;;23.22;72.47;99369.26;5052086;56;1255287;-73
2023/09/21 20:52:29;;;;;;;8.93;5.10;;;;;;;23.14;72.96;99365.81;5088313;56;1251280;-73
2023/09/21 20:57:35;;;;;;;5.97;4.58;;;;;;;23.08;72.96;99369.94;5089582;56;1136585;-74
2023/09/21 21:02:43;;;;;;;10.55;4.35;;;;;;;23.04;73.82;99364.20;5090766;56;1253661;-73
2023/09/21 21:07:48;;;;;;;12.33;4.95;;;;;;;22.97;74.28;99359.40;5115598;56;1254479;-74
2023/09/21 21:12:54;;;;;;;14.35;4.90;;;;;;;22.90;74.66;99355.98;5021769;56;1256370;-73
2023/09/21 21:17:59;;;;;;;8.45;5.12;;;;;;;22.84;75.06;99351.48;4989082;56;1138558;-74
2023/09/21 21:23:05;;;;;;;9.65;4.10;;;;;;;22.82;75.70;99353.58;5011768;57;1136599;-74
2023/09/21 21:28:11;;;;;;;13.72;5.22;;;;;;;22.78;76.56;99346.98;5011621;57;1136896;-74
2023/09/21 21:33:16;;;;;;;16.00;3.87;;;;;;;22.76;77.00;99350.43;4981149;57;1138716;-74
2023/09/21 21:38:22;;;;;;;12.70;4.40;;;;;;;22.77;77.31;99345.34;5034823;56;1138874;-74
2023/09/21 21:43:27;;;;;;;7.58;3.85;;;;;;;22.71;77.92;99343.02;4957095;57;1138794;-74
2023/09/21 21:48:33;;;;;;;5.47;3.80;;;;;;;22.66;78.17;99345.55;4904492;57;1136805;-74
2023/09/21 21:53:39;;;;;;;13.40;4.03;;;;;;;22.60;78.74;99342.95;4958133;58;1210236;-73
2023/09/21 21:58:45;;;;;;;6.33;3.47;;;;;;;22.56;78.47;99339.88;4965506;56;1138663;-74
2023/09/21 22:03:50;;;;;;;6.65;3.00;;;;;;;22.54;78.97;99336.58;4944786;56;1136796;-72
2023/09/21 22:08:56;;;;;;;7.92;3.17;;;;;;;22.50;78.95;99328.64;4963608;57;1136613;-74
2023/09/21 22:14:02;;;;;;;6.80;3.00;;;;;;;22.45;79.32;99319.08;4944800;57;1136747;-73
2023/09/21 22:19:07;;;;;;;6.05;2.90;;;;;;;22.37;79.49;99312.63;5010211;56;1136915;-73
2023/09/21 22:24:13;;;;;;;10.65;3.50;;;;;;;22.29;80.37;99311.08;5026466;56;1136879;-74
2023/09/21 22:29:19;;;;;;;15.05;3.80;;;;;;;22.21;80.49;99314.05;4914057;58;1138996;-75
2023/09/21 22:34:24;;;;;;;4.90;3.72;;;;;;;22.16;80.13;99309.02;4991173;57;1138464;-74
2023/09/21 22:39:30;;;;;;;3.37;3.08;;;;;;;22.07;80.53;99306.63;4991967;57;1136756;-74
2023/09/21 22:44:36;;;;;;;12.93;3.33;;;;;;;22.00;81.42;99304.52;5042021;57;1136641;-74
2023/09/21 22:49:42;;;;;;;8.00;3.47;;;;;;;21.92;81.52;99298.58;4981429;57;1138804;-74
2023/09/21 22:54:47;;;;;;;4.62;3.50;;;;;;;21.83;82.00;99296.70;5021179;57;1136571;-74
2023/09/21 22:59:53;;;;;;;9.93;3.10;;;;;;;21.78;81.43;99291.15;4889560;57;1136814;-74
2023/09/21 23:04:58;;;;;;;8.90;3.00;;;;;;;21.71;81.76;99289.02;4866764;57;1136721;-73
2023/09/21 23:10:11;;;;;;;8.80;3.37;;;;;;;21.64;82.12;99284.24;4944168;57;1136664;-73
2023/09/21 23:15:14;;;;;;;10.58;3.50;;;;;;;21.55;83.05;99282.33;4911443;57;1136692;-73